Report METAR

 


LIBF - Foggia/Gino Lisa, Italy
Distance from station: NE 23km
Dati ricevuti: 17/01/2022 15:50
DATI Obsoleti
Sereno
Sereno
 Vento da NNO
Vento: NNO 24 km/h
Temperatura: 13°C
P.to Rugiada: 6°C
Umidità: 63%
Barometro: 1024 hPa
Summary: Sereno
Visibility: superiore a 10 km
2022/01/17 14:50 LIBF 171450Z 34013KT CAVOK 13/06 Q1024
LIRT - Trevico, Italy
Distance from station: SSO 28km
Dati ricevuti: 17/01/2022 11:55
DATI Obsoleti

 
2022/01/17 10:55 LIRT 171055Z ///05KT 0000 FG VV/// 05/03 Q1023 RMK MON INVIS VAL INVIS VIS MIN 0000
LIBA - Amendola (it-Afb, Italy
Distance from station: NE 42km
Dati ricevuti: 18/01/2022 01:55
Parz. nuvoloso
Parz. nuvoloso
 Vento da OSO
Vento: OSO 13 km/h
Temperatura: 5°C
Temperatura del Vento: 2°C
P.to Rugiada: 3°C
Umidità: 87%
Barometro: 1026 hPa
Nuvole: Parz. nuvoloso
Visibility: 8 km
2022/01/18 00:55 LIBA 180055Z 25007KT 8000 NSC 05/03 Q1026 RMK SKC VIS MIN 8000 WIND THR11 27009KT WIND THR29 /////KT BLU
 
LIRI - Pontecagnano (af, Italy
Distance from station: SSO 81km
Dati ricevuti: 17/01/2022 16:50
DATI Obsoleti
Sereno
Sereno
 Vento da O
Vento: O 7 km/h
Temperatura: 13°C
P.to Rugiada: 6°C
Umidità: 63%
Barometro: 1024 hPa
Summary: Sereno
Visibility: superiore a 10 km
2022/01/17 15:50 LIRI 171550Z 26004KT CAVOK 13/06 Q1024
LIRN - Naples/Capodichi, Italy
Distance from station: OSO 96km
Dati ricevuti: 18/01/2022 02:20
Parz. nuvoloso
Parz. nuvoloso
 Vento da ENE
Vento: ENE 7 km/h
Temperatura: 4°C
Temperatura del Vento: 2°C
P.to Rugiada: 2°C
Umidità: 87%
Barometro: 1027 hPa
Nuvole: Parz. nuvoloso
Visibility: 6 km
2022/01/18 01:20 LIRN 180120Z 06004KT 6000 NSC 04/02 Q1027 NOSIG
LIRM - Grazzanise (it-A, Italy
Distance from station: OSO 109km
Dati ricevuti: 18/01/2022 01:55
Mist, Parz. nuvoloso
Mist, Parz. nuvoloso
 Vento da Variabile
Vento: Variabile 0 km/h
Temperatura: 3°C
P.to Rugiada: 3°C
Umidità: 100%
Barometro: 1026 hPa
Summary: Mist
Nuvole: Parz. nuvoloso
Visibility: 3 km
2022/01/18 00:55 LIRM 180055Z /////KT 3000 BR NSC 03/03 Q1026
 
LIBD - Bari/Palese Macc, Italy
Distance from station: E 121km
Dati ricevuti: 18/01/2022 02:20
Sereno
Sereno
 Vento da O
Vento: O 13 km/h
Temperatura: 7°C
Temperatura del Vento: 5°C
P.to Rugiada: 5°C
Umidità: 87%
Barometro: 1026 hPa
Summary: Sereno
Visibility: superiore a 10 km
2022/01/18 01:20 LIBD 180120Z 28007KT CAVOK 07/05 Q1026
LIQC - Capri Island, Italy
Distance from station: SO 124km
Dati ricevuti: 18/01/2022 00:55
DATI Obsoleti
Sereno
Sereno
 Vento da NE
Vento: NE 6 km/h
Temperatura: 10°C
P.to Rugiada: 7°C
Umidità: 82%
Barometro: 1026 hPa
Summary: Sereno
Visibility: superiore a 10 km
2022/01/17 23:55 LIQC 172355Z 05003KT CAVOK 10/07 Q1026 RMK SKC QUK / QUL / VIS MAR 15 KM VIS MIN 9999
LIBV - Gioia Del Colle, Italy
Distance from station: ESE 144km
Dati ricevuti: 18/01/2022 01:55
Parz. nuvoloso
Parz. nuvoloso
 Vento da ONO
Vento: ONO 13 km/h
Temperatura: 5°C
Temperatura del Vento: 2°C
P.to Rugiada: 4°C
Umidità: 93%
Barometro: 1024 hPa
Nuvole: Parz. nuvoloso
Visibility: 8 km
2022/01/18 00:55 LIBV 180055Z 30007KT 8000 NSC 05/04 Q1024 RMK SKC VIS MIN 8000 WIND THR32 32006KT WIND THR14 30007KT BLU
 
LIBP - Pescara, Italy
Distance from station: NO 159km
Dati ricevuti: 18/01/2022 02:20
Sereno
Sereno
 Vento da SSO
Vento: SSO 9 km/h
Temperatura: 0°C
Temperatura del Vento: -3°C
P.to Rugiada: 0°C
Umidità: 100%
Barometro: 1028 hPa
Nuvole: Sereno
Visibility: 10 km
2022/01/18 01:20 LIBP 180120Z AUTO 20005KT 9999 NCD M00/M00 Q1028
LIBH - Marina Di Ginosa, Italy
Distance from station: SE 160km
Dati ricevuti: 17/01/2022 18:55
DATI Obsoleti
Sereno
Sereno
 Vento da NO
Vento: NO 15 km/h
Temperatura: 10°C
Temperatura del Vento: 8°C
P.to Rugiada: 5°C
Umidità: 71%
Barometro: 1023 hPa
Summary: Sereno
Visibility: superiore a 10 km
2022/01/17 17:55 LIBH 171755Z 31008KT CAVOK 10/05 Q1023 RMK SKC QUK / QUL / VIS MAR 20 KM VIS MIN 9999
LIRH - Frosinone (it-Af, Italy
Distance from station: ONO 174km
Dati ricevuti: 17/01/2022 18:55
DATI Obsoleti
Parz. nuvoloso
Parz. nuvoloso
 Vento da OSO
Vento: OSO 6 km/h
Temperatura: 6°C
P.to Rugiada: 4°C
Umidità: 87%
Barometro: 1024 hPa
Nuvole: Parz. nuvoloso
Visibility: 6 km
2022/01/17 17:55 LIRH 171755Z 25003KT 6000 NSC 06/04 Q1024
 
LIBG - Grottaglie(Civ/A, Italy
Distance from station: ESE 192km
Dati ricevuti: 17/01/2022 19:50
DATI Obsoleti
Sereno
Sereno
 Vento da OSO
Vento: OSO 7 km/h
Temperatura: 8°C
Temperatura del Vento: 7°C
P.to Rugiada: 5°C
Umidità: 82%
Barometro: 1024 hPa
Summary: Sereno
Visibility: superiore a 10 km
2022/01/17 18:50 LIBG 171850Z 25004KT CAVOK 08/05 Q1024
LIRL - Latina (it-Afb), Italy
Distance from station: O 205km
Dati ricevuti: 17/01/2022 18:55
DATI Obsoleti
Sereno
Sereno
 Vento da Variabile
Vento: Variabile 0 km/h
Temperatura: 8°C
P.to Rugiada: 5°C
Umidità: 82%
Barometro: 1024 hPa
Summary: Sereno
Visibility: superiore a 10 km
2022/01/17 17:55 LIRL 171755Z /////KT CAVOK 08/05 Q1024
LIBR - Brindisi/Casale, Italy
Distance from station: ESE 231km
Dati ricevuti: 18/01/2022 02:20
Sereno
Sereno
 Vento da NO
Vento: NO 26 km/h
Temperatura: 10°C
Temperatura del Vento: 7°C
P.to Rugiada: 7°C
Umidità: 82%
Barometro: 1024 hPa
Summary: Sereno
Visibility: superiore a 10 km
2022/01/18 01:20 LIBR 180120Z 31014KT CAVOK 10/07 Q1024
 
LIRG - Guidonia (it-Afb, Italy
Distance from station: ONO 232km
Dati ricevuti: 17/01/2022 18:55
DATI Obsoleti
Sereno
Sereno
 Vento da NE
Vento: NE 9 km/h
Temperatura: 7°C
Temperatura del Vento: 6°C
P.to Rugiada: 2°C
Umidità: 71%
Barometro: 1025 hPa
Summary: Sereno
Visibility: superiore a 10 km
2022/01/17 17:55 LIRG 171755Z 04005KT CAVOK 07/02 Q1025
LIBQ - Scuro Mountain, Italy
Distance from station: SSE 235km
Dati ricevuti: 17/01/2022 22:55
DATI Obsoleti
Sereno
Sereno
 Vento da O
Vento: O 6 km/h
Temperatura: 0°C
P.to Rugiada: -2°C
Umidità: 87%
Barometro: 1023 hPa
Summary: Sereno
Visibility: superiore a 10 km
2022/01/17 21:55 LIBQ 172155Z 26003KT CAVOK 00/M02 Q1023
LIRA - Ciampino(It-Afb/, Italy
Distance from station: ONO 236km
Dati ricevuti: 18/01/2022 02:20
Parz. nuvoloso
Parz. nuvoloso
 Vento da NE
Vento: NE 6 km/h
Temperatura: 2°C
P.to Rugiada: 2°C
Umidità: 100%
Barometro: 1027 hPa
Nuvole: Parz. nuvoloso
Visibility: 9 km
2022/01/18 01:20 LIRA 180120Z 05003KT 9000 NSC 02/02 Q1027
 
LIQN - Rieti, Italy
Distance from station: ONO 243km
Dati ricevuti: 17/01/2022 17:50
DATI Obsoleti
Sereno
Sereno
 Vento da Variabile
Vento: Variabile 4 km/h
Temperatura: 7°C
P.to Rugiada: 3°C
Umidità: 76%
Barometro: 1024 hPa
Summary: Sereno
Visibility: superiore a 10 km
2022/01/17 16:50 LIQN 171650Z VRB02KT CAVOK 07/03 Q1024
LIRE - Pratica Di Mare(, Italy
Distance from station: O 246km
Dati ricevuti: 18/01/2022 01:55
Sereno
Sereno
 Vento da NNO
Vento: NNO 7 km/h
Temperatura: 3°C
Temperatura del Vento: 1°C
P.to Rugiada: 1°C
Umidità: 87%
Barometro: 1027 hPa
Summary: Sereno
Visibility: superiore a 10 km
2022/01/18 00:55 LIRE 180055Z 34004KT CAVOK 03/01 Q1027 RMK SKC VIS MIN 9999 WIND THR13 01003KT WIND THR31 /////KT BLU